sensor_id;sensor_type;location;lat;lon;timestamp;P1;durP1;ratioP1;P2;durP2;ratioP2
8488;SDS011;4281;45.772;12.852;2023-07-29T00:02:13;3.37;;;3.07;;
8488;SDS011;4281;45.772;12.852;2023-07-29T00:04:41;3.90;;;3.20;;
8488;SDS011;4281;45.772;12.852;2023-07-29T00:07:09;4.03;;;3.13;;
8488;SDS011;4281;45.772;12.852;2023-07-29T00:09:36;3.80;;;3.40;;
8488;SDS011;4281;45.772;12.852;2023-07-29T00:12:06;3.87;;;3.47;;
8488;SDS011;4281;45.772;12.852;2023-07-29T00:14:35;4.07;;;3.53;;
8488;SDS011;4281;45.772;12.852;2023-07-29T00:17:03;3.53;;;3.23;;
8488;SDS011;4281;45.772;12.852;2023-07-29T00:19:31;3.90;;;3.47;;
8488;SDS011;4281;45.772;12.852;2023-07-29T00:22:00;3.40;;;3.10;;
8488;SDS011;4281;45.772;12.852;2023-07-29T00:24:28;3.40;;;3.10;;
8488;SDS011;4281;45.772;12.852;2023-07-29T00:26:55;3.90;;;3.60;;
8488;SDS011;4281;45.772;12.852;2023-07-29T00:29:25;4.50;;;3.70;;
8488;SDS011;4281;45.772;12.852;2023-07-29T00:31:53;3.40;;;3.10;;
8488;SDS011;4281;45.772;12.852;2023-07-29T00:34:21;3.37;;;3.10;;
8488;SDS011;4281;45.772;12.852;2023-07-29T00:36:49;3.50;;;3.20;;
8488;SDS011;4281;45.772;12.852;2023-07-29T00:39:16;3.33;;;3.03;;
8488;SDS011;4281;45.772;12.852;2023-07-29T00:41:45;3.33;;;3.03;;
8488;SDS011;4281;45.772;12.852;2023-07-29T00:44:13;3.70;;;3.40;;
8488;SDS011;4281;45.772;12.852;2023-07-29T00:46:42;3.33;;;3.13;;
8488;SDS011;4281;45.772;12.852;2023-07-29T00:49:12;3.43;;;3.13;;
8488;SDS011;4281;45.772;12.852;2023-07-29T00:51:40;3.80;;;3.50;;
8488;SDS011;4281;45.772;12.852;2023-07-29T00:54:08;4.00;;;3.27;;
8488;SDS011;4281;45.772;12.852;2023-07-29T00:56:36;3.73;;;3.30;;
8488;SDS011;4281;45.772;12.852;2023-07-29T00:59:05;3.77;;;3.47;;
8488;SDS011;4281;45.772;12.852;2023-07-29T01:01:33;3.50;;;3.13;;
8488;SDS011;4281;45.772;12.852;2023-07-29T01:04:02;3.60;;;3.30;;
8488;SDS011;4281;45.772;12.852;2023-07-29T01:06:34;3.60;;;3.30;;
8488;SDS011;4281;45.772;12.852;2023-07-29T01:09:09;3.70;;;3.40;;
8488;SDS011;4281;45.772;12.852;2023-07-29T01:11:44;4.03;;;3.50;;
8488;SDS011;4281;45.772;12.852;2023-07-29T01:14:19;3.47;;;3.17;;
8488;SDS011;4281;45.772;12.852;2023-07-29T01:16:52;3.60;;;3.30;;
8488;SDS011;4281;45.772;12.852;2023-07-29T01:19:29;3.80;;;3.50;;
8488;SDS011;4281;45.772;12.852;2023-07-29T01:22:07;3.50;;;3.20;;
8488;SDS011;4281;45.772;12.852;2023-07-29T01:24:37;3.70;;;3.23;;
8488;SDS011;4281;45.772;12.852;2023-07-29T01:27:07;3.53;;;3.17;;
8488;SDS011;4281;45.772;12.852;2023-07-29T01:29:35;3.80;;;3.50;;
8488;SDS011;4281;45.772;12.852;2023-07-29T01:32:04;3.50;;;3.20;;
8488;SDS011;4281;45.772;12.852;2023-07-29T01:34:39;3.60;;;3.30;;
8488;SDS011;4281;45.772;12.852;2023-07-29T01:37:09;3.50;;;3.20;;
8488;SDS011;4281;45.772;12.852;2023-07-29T01:39:40;3.60;;;3.30;;
8488;SDS011;4281;45.772;12.852;2023-07-29T01:42:08;3.13;;;2.93;;
8488;SDS011;4281;45.772;12.852;2023-07-29T01:44:36;3.97;;;3.67;;
8488;SDS011;4281;45.772;12.852;2023-07-29T01:47:05;3.57;;;3.27;;
8488;SDS011;4281;45.772;12.852;2023-07-29T01:49:33;3.57;;;3.27;;
8488;SDS011;4281;45.772;12.852;2023-07-29T01:52:00;3.87;;;3.57;;
8488;SDS011;4281;45.772;12.852;2023-07-29T01:54:29;4.00;;;3.70;;
8488;SDS011;4281;45.772;12.852;2023-07-29T01:56:59;4.67;;;3.70;;
8488;SDS011;4281;45.772;12.852;2023-07-29T01:59:27;4.30;;;3.90;;
8488;SDS011;4281;45.772;12.852;2023-07-29T02:01:55;3.63;;;3.33;;
8488;SDS011;4281;45.772;12.852;2023-07-29T02:04:23;4.30;;;3.90;;
8488;SDS011;4281;45.772;12.852;2023-07-29T02:06:51;4.33;;;3.93;;
8488;SDS011;4281;45.772;12.852;2023-07-29T02:09:18;4.00;;;3.70;;
8488;SDS011;4281;45.772;12.852;2023-07-29T02:11:46;4.00;;;3.70;;
8488;SDS011;4281;45.772;12.852;2023-07-29T02:14:15;4.43;;;3.67;;
8488;SDS011;4281;45.772;12.852;2023-07-29T02:19:16;3.90;;;3.60;;
8488;SDS011;4281;45.772;12.852;2023-07-29T02:21:45;4.00;;;3.70;;
8488;SDS011;4281;45.772;12.852;2023-07-29T02:24:13;4.67;;;4.27;;
8488;SDS011;4281;45.772;12.852;2023-07-29T02:26:41;4.60;;;4.20;;
8488;SDS011;4281;45.772;12.852;2023-07-29T02:29:08;4.40;;;4.00;;
8488;SDS011;4281;45.772;12.852;2023-07-29T02:31:38;5.07;;;4.57;;
8488;SDS011;4281;45.772;12.852;2023-07-29T02:34:06;5.23;;;4.77;;
8488;SDS011;4281;45.772;12.852;2023-07-29T02:36:34;4.80;;;4.37;;
8488;SDS011;4281;45.772;12.852;2023-07-29T02:39:02;5.10;;;4.70;;
8488;SDS011;4281;45.772;12.852;2023-07-29T02:41:30;5.87;;;5.33;;
8488;SDS011;4281;45.772;12.852;2023-07-29T02:43:58;6.07;;;5.37;;
8488;SDS011;4281;45.772;12.852;2023-07-29T02:46:26;6.27;;;5.23;;
8488;SDS011;4281;45.772;12.852;2023-07-29T02:48:55;5.30;;;4.83;;
8488;SDS011;4281;45.772;12.852;2023-07-29T02:51:23;5.63;;;5.13;;
8488;SDS011;4281;45.772;12.852;2023-07-29T02:53:51;5.67;;;5.17;;
8488;SDS011;4281;45.772;12.852;2023-07-29T02:56:19;5.10;;;4.70;;
8488;SDS011;4281;45.772;12.852;2023-07-29T02:58:47;5.70;;;5.20;;
8488;SDS011;4281;45.772;12.852;2023-07-29T03:01:14;6.17;;;4.90;;
8488;SDS011;4281;45.772;12.852;2023-07-29T03:03:43;5.30;;;4.90;;
8488;SDS011;4281;45.772;12.852;2023-07-29T03:06:13;5.20;;;4.77;;
8488;SDS011;4281;45.772;12.852;2023-07-29T03:08:41;6.07;;;5.47;;
8488;SDS011;4281;45.772;12.852;2023-07-29T03:11:10;5.33;;;4.93;;
8488;SDS011;4281;45.772;12.852;2023-07-29T03:13:39;4.73;;;4.33;;
8488;SDS011;4281;45.772;12.852;2023-07-29T03:16:07;5.30;;;4.80;;
8488;SDS011;4281;45.772;12.852;2023-07-29T03:18:37;3.93;;;3.60;;
8488;SDS011;4281;45.772;12.852;2023-07-29T03:21:05;3.60;;;3.30;;
8488;SDS011;4281;45.772;12.852;2023-07-29T03:23:34;2.73;;;2.50;;
8488;SDS011;4281;45.772;12.852;2023-07-29T03:26:02;2.33;;;2.13;;
8488;SDS011;4281;45.772;12.852;2023-07-29T03:28:36;2.43;;;2.23;;
8488;SDS011;4281;45.772;12.852;2023-07-29T03:31:06;2.30;;;2.10;;
8488;SDS011;4281;45.772;12.852;2023-07-29T03:33:34;2.03;;;1.90;;
8488;SDS011;4281;45.772;12.852;2023-07-29T03:36:02;2.00;;;1.90;;
8488;SDS011;4281;45.772;12.852;2023-07-29T03:38:30;1.87;;;1.77;;
8488;SDS011;4281;45.772;12.852;2023-07-29T03:41:00;2.87;;;2.00;;
8488;SDS011;4281;45.772;12.852;2023-07-29T03:43:29;1.70;;;1.60;;
8488;SDS011;4281;45.772;12.852;2023-07-29T03:45:57;2.80;;;1.90;;
8488;SDS011;4281;45.772;12.852;2023-07-29T03:48:25;1.77;;;1.60;;
8488;SDS011;4281;45.772;12.852;2023-07-29T03:50:53;1.97;;;1.70;;
8488;SDS011;4281;45.772;12.852;2023-07-29T03:53:21;1.90;;;1.80;;
8488;SDS011;4281;45.772;12.852;2023-07-29T03:55:49;1.70;;;1.60;;
8488;SDS011;4281;45.772;12.852;2023-07-29T03:58:18;1.70;;;1.60;;
8488;SDS011;4281;45.772;12.852;2023-07-29T04:00:46;2.33;;;1.63;;
8488;SDS011;4281;45.772;12.852;2023-07-29T04:03:15;2.03;;;1.60;;
8488;SDS011;4281;45.772;12.852;2023-07-29T04:05:43;1.60;;;1.50;;
8488;SDS011;4281;45.772;12.852;2023-07-29T04:08:11;1.63;;;1.53;;
8488;SDS011;4281;45.772;12.852;2023-07-29T04:10:39;1.70;;;1.60;;
8488;SDS011;4281;45.772;12.852;2023-07-29T04:13:07;1.80;;;1.70;;
8488;SDS011;4281;45.772;12.852;2023-07-29T04:15:36;2.00;;;1.90;;
8488;SDS011;4281;45.772;12.852;2023-07-29T04:18:04;1.77;;;1.67;;
8488;SDS011;4281;45.772;12.852;2023-07-29T04:20:32;1.70;;;1.60;;
8488;SDS011;4281;45.772;12.852;2023-07-29T04:23:00;2.43;;;1.83;;
8488;SDS011;4281;45.772;12.852;2023-07-29T04:25:28;2.20;;;1.80;;
8488;SDS011;4281;45.772;12.852;2023-07-29T04:27:56;1.70;;;1.60;;
8488;SDS011;4281;45.772;12.852;2023-07-29T04:30:24;1.57;;;1.47;;
8488;SDS011;4281;45.772;12.852;2023-07-29T04:32:54;1.50;;;1.40;;
8488;SDS011;4281;45.772;12.852;2023-07-29T04:35:21;2.20;;;1.33;;
8488;SDS011;4281;45.772;12.852;2023-07-29T04:37:49;1.40;;;1.30;;
8488;SDS011;4281;45.772;12.852;2023-07-29T04:40:17;1.47;;;1.30;;
8488;SDS011;4281;45.772;12.852;2023-07-29T04:42:45;1.40;;;1.20;;
8488;SDS011;4281;45.772;12.852;2023-07-29T04:45:13;1.20;;;1.10;;
8488;SDS011;4281;45.772;12.852;2023-07-29T04:47:42;1.50;;;1.40;;
8488;SDS011;4281;45.772;12.852;2023-07-29T04:50:11;1.87;;;1.30;;
8488;SDS011;4281;45.772;12.852;2023-07-29T04:52:39;1.23;;;1.13;;
8488;SDS011;4281;45.772;12.852;2023-07-29T04:55:07;1.33;;;1.20;;
8488;SDS011;4281;45.772;12.852;2023-07-29T04:57:35;1.40;;;1.30;;
8488;SDS011;4281;45.772;12.852;2023-07-29T05:00:03;1.10;;;1.10;;
8488;SDS011;4281;45.772;12.852;2023-07-29T05:02:31;1.37;;;1.20;;
8488;SDS011;4281;45.772;12.852;2023-07-29T05:05:00;1.40;;;1.30;;
8488;SDS011;4281;45.772;12.852;2023-07-29T05:07:30;1.40;;;1.23;;
8488;SDS011;4281;45.772;12.852;2023-07-29T05:10:00;1.10;;;1.10;;
8488;SDS011;4281;45.772;12.852;2023-07-29T05:12:28;1.33;;;1.20;;
8488;SDS011;4281;45.772;12.852;2023-07-29T05:14:56;1.40;;;1.30;;
8488;SDS011;4281;45.772;12.852;2023-07-29T05:17:24;1.60;;;1.30;;
8488;SDS011;4281;45.772;12.852;2023-07-29T05:19:52;1.50;;;1.20;;
8488;SDS011;4281;45.772;12.852;2023-07-29T05:22:20;1.93;;;1.40;;
8488;SDS011;4281;45.772;12.852;2023-07-29T05:24:49;1.40;;;1.30;;
8488;SDS011;4281;45.772;12.852;2023-07-29T05:27:17;1.20;;;1.10;;
8488;SDS011;4281;45.772;12.852;2023-07-29T05:29:45;1.37;;;1.27;;
8488;SDS011;4281;45.772;12.852;2023-07-29T05:32:13;1.23;;;1.10;;
8488;SDS011;4281;45.772;12.852;2023-07-29T05:34:41;1.20;;;1.17;;
8488;SDS011;4281;45.772;12.852;2023-07-29T05:37:09;1.73;;;1.13;;
8488;SDS011;4281;45.772;12.852;2023-07-29T05:39:37;1.43;;;1.23;;
8488;SDS011;4281;45.772;12.852;2023-07-29T05:42:06;1.40;;;1.30;;
8488;SDS011;4281;45.772;12.852;2023-07-29T05:44:34;1.37;;;1.27;;
8488;SDS011;4281;45.772;12.852;2023-07-29T05:47:02;1.57;;;1.40;;
8488;SDS011;4281;45.772;12.852;2023-07-29T05:49:31;1.57;;;1.33;;
8488;SDS011;4281;45.772;12.852;2023-07-29T05:51:59;1.63;;;1.53;;
8488;SDS011;4281;45.772;12.852;2023-07-29T05:54:28;1.63;;;1.50;;
8488;SDS011;4281;45.772;12.852;2023-07-29T05:56:56;1.50;;;1.40;;
8488;SDS011;4281;45.772;12.852;2023-07-29T05:59:26;1.50;;;1.40;;
8488;SDS011;4281;45.772;12.852;2023-07-29T06:01:56;1.40;;;1.30;;
8488;SDS011;4281;45.772;12.852;2023-07-29T06:04:23;1.40;;;1.30;;
8488;SDS011;4281;45.772;12.852;2023-07-29T06:06:52;1.57;;;1.47;;
8488;SDS011;4281;45.772;12.852;2023-07-29T06:09:21;1.80;;;1.43;;
8488;SDS011;4281;45.772;12.852;2023-07-29T06:11:52;3.63;;;1.50;;
8488;SDS011;4281;45.772;12.852;2023-07-29T06:14:21;1.93;;;1.63;;
8488;SDS011;4281;45.772;12.852;2023-07-29T06:16:50;1.90;;;1.70;;
8488;SDS011;4281;45.772;12.852;2023-07-29T06:19:19;1.83;;;1.60;;
8488;SDS011;4281;45.772;12.852;2023-07-29T06:21:48;2.00;;;1.80;;
8488;SDS011;4281;45.772;12.852;2023-07-29T06:24:15;2.13;;;1.93;;
8488;SDS011;4281;45.772;12.852;2023-07-29T06:26:43;1.97;;;1.77;;
8488;SDS011;4281;45.772;12.852;2023-07-29T06:29:11;2.10;;;1.80;;
8488;SDS011;4281;45.772;12.852;2023-07-29T06:31:39;2.03;;;1.70;;
8488;SDS011;4281;45.772;12.852;2023-07-29T06:34:08;2.30;;;1.90;;
8488;SDS011;4281;45.772;12.852;2023-07-29T06:36:36;1.87;;;1.77;;
8488;SDS011;4281;45.772;12.852;2023-07-29T06:39:05;1.90;;;1.67;;
8488;SDS011;4281;45.772;12.852;2023-07-29T06:41:32;2.23;;;2.00;;
8488;SDS011;4281;45.772;12.852;2023-07-29T06:44:00;1.70;;;1.60;;
8488;SDS011;4281;45.772;12.852;2023-07-29T06:46:28;1.70;;;1.60;;
8488;SDS011;4281;45.772;12.852;2023-07-29T06:48:56;2.00;;;1.60;;
8488;SDS011;4281;45.772;12.852;2023-07-29T06:51:28;1.83;;;1.73;;
8488;SDS011;4281;45.772;12.852;2023-07-29T06:53:58;1.87;;;1.77;;
8488;SDS011;4281;45.772;12.852;2023-07-29T06:56:28;1.80;;;1.70;;
8488;SDS011;4281;45.772;12.852;2023-07-29T06:58:56;2.10;;;1.90;;
8488;SDS011;4281;45.772;12.852;2023-07-29T07:01:24;1.80;;;1.70;;
8488;SDS011;4281;45.772;12.852;2023-07-29T07:03:52;1.60;;;1.50;;
8488;SDS011;4281;45.772;12.852;2023-07-29T07:06:21;2.00;;;1.90;;
8488;SDS011;4281;45.772;12.852;2023-07-29T07:08:52;3.03;;;1.87;;
8488;SDS011;4281;45.772;12.852;2023-07-29T07:11:20;2.20;;;2.00;;
8488;SDS011;4281;45.772;12.852;2023-07-29T07:13:49;1.90;;;1.70;;
8488;SDS011;4281;45.772;12.852;2023-07-29T07:16:17;2.20;;;2.00;;
8488;SDS011;4281;45.772;12.852;2023-07-29T07:18:45;2.13;;;2.00;;
8488;SDS011;4281;45.772;12.852;2023-07-29T07:21:13;2.40;;;2.20;;
8488;SDS011;4281;45.772;12.852;2023-07-29T07:23:41;2.10;;;1.90;;
8488;SDS011;4281;45.772;12.852;2023-07-29T07:26:10;1.80;;;1.70;;
8488;SDS011;4281;45.772;12.852;2023-07-29T07:28:39;2.30;;;2.10;;
8488;SDS011;4281;45.772;12.852;2023-07-29T07:31:06;2.23;;;2.13;;
8488;SDS011;4281;45.772;12.852;2023-07-29T07:33:34;2.07;;;1.90;;
8488;SDS011;4281;45.772;12.852;2023-07-29T07:36:04;2.47;;;2.27;;
8488;SDS011;4281;45.772;12.852;2023-07-29T07:38:33;2.37;;;2.17;;
8488;SDS011;4281;45.772;12.852;2023-07-29T07:41:01;2.30;;;2.10;;
8488;SDS011;4281;45.772;12.852;2023-07-29T07:43:30;2.63;;;2.13;;
8488;SDS011;4281;45.772;12.852;2023-07-29T07:45:58;2.57;;;2.27;;
8488;SDS011;4281;45.772;12.852;2023-07-29T07:48:27;2.63;;;2.43;;
8488;SDS011;4281;45.772;12.852;2023-07-29T07:50:55;2.23;;;2.03;;
8488;SDS011;4281;45.772;12.852;2023-07-29T07:53:23;2.20;;;2.00;;
8488;SDS011;4281;45.772;12.852;2023-07-29T07:55:52;2.40;;;2.20;;
8488;SDS011;4281;45.772;12.852;2023-07-29T07:58:20;2.53;;;2.10;;
8488;SDS011;4281;45.772;12.852;2023-07-29T08:00:49;2.73;;;2.03;;
8488;SDS011;4281;45.772;12.852;2023-07-29T08:03:17;2.13;;;2.03;;
8488;SDS011;4281;45.772;12.852;2023-07-29T08:05:45;2.33;;;2.13;;
8488;SDS011;4281;45.772;12.852;2023-07-29T08:08:13;2.50;;;2.30;;
8488;SDS011;4281;45.772;12.852;2023-07-29T08:10:41;2.50;;;2.30;;
8488;SDS011;4281;45.772;12.852;2023-07-29T08:13:09;2.60;;;2.40;;
8488;SDS011;4281;45.772;12.852;2023-07-29T08:15:37;3.90;;;2.40;;
8488;SDS011;4281;45.772;12.852;2023-07-29T08:18:07;3.43;;;2.03;;
8488;SDS011;4281;45.772;12.852;2023-07-29T08:20:34;3.90;;;2.50;;
8488;SDS011;4281;45.772;12.852;2023-07-29T08:23:02;2.73;;;2.30;;
8488;SDS011;4281;45.772;12.852;2023-07-29T08:25:30;2.97;;;2.30;;
8488;SDS011;4281;45.772;12.852;2023-07-29T08:27:58;3.73;;;2.47;;
8488;SDS011;4281;45.772;12.852;2023-07-29T08:30:26;3.10;;;2.80;;
8488;SDS011;4281;45.772;12.852;2023-07-29T08:32:54;2.67;;;2.37;;
8488;SDS011;4281;45.772;12.852;2023-07-29T08:35:23;3.10;;;2.40;;
8488;SDS011;4281;45.772;12.852;2023-07-29T08:37:51;3.33;;;2.67;;
8488;SDS011;4281;45.772;12.852;2023-07-29T08:40:22;3.23;;;2.60;;
8488;SDS011;4281;45.772;12.852;2023-07-29T08:42:51;3.00;;;2.40;;
8488;SDS011;4281;45.772;12.852;2023-07-29T08:45:19;2.83;;;2.40;;
8488;SDS011;4281;45.772;12.852;2023-07-29T08:47:47;3.77;;;2.60;;
8488;SDS011;4281;45.772;12.852;2023-07-29T08:50:16;2.57;;;2.37;;
8488;SDS011;4281;45.772;12.852;2023-07-29T08:52:45;4.17;;;2.70;;
8488;SDS011;4281;45.772;12.852;2023-07-29T08:55:13;3.50;;;2.50;;
8488;SDS011;4281;45.772;12.852;2023-07-29T08:57:41;2.77;;;2.30;;
8488;SDS011;4281;45.772;12.852;2023-07-29T09:00:10;2.60;;;2.30;;
8488;SDS011;4281;45.772;12.852;2023-07-29T09:02:38;2.80;;;2.43;;
8488;SDS011;4281;45.772;12.852;2023-07-29T09:05:07;2.73;;;2.33;;
8488;SDS011;4281;45.772;12.852;2023-07-29T09:07:35;3.00;;;2.50;;
8488;SDS011;4281;45.772;12.852;2023-07-29T09:10:08;3.30;;;2.40;;
8488;SDS011;4281;45.772;12.852;2023-07-29T09:12:36;2.90;;;2.60;;
8488;SDS011;4281;45.772;12.852;2023-07-29T09:15:05;4.40;;;2.70;;
8488;SDS011;4281;45.772;12.852;2023-07-29T09:17:33;2.90;;;2.70;;
8488;SDS011;4281;45.772;12.852;2023-07-29T09:20:01;2.83;;;2.60;;
8488;SDS011;4281;45.772;12.852;2023-07-29T09:22:31;3.93;;;2.80;;
8488;SDS011;4281;45.772;12.852;2023-07-29T09:24:59;3.00;;;2.80;;
8488;SDS011;4281;45.772;12.852;2023-07-29T09:27:28;3.23;;;2.50;;
8488;SDS011;4281;45.772;12.852;2023-07-29T09:29:58;2.90;;;2.67;;
8488;SDS011;4281;45.772;12.852;2023-07-29T09:32:26;3.77;;;2.73;;
8488;SDS011;4281;45.772;12.852;2023-07-29T09:34:54;3.33;;;2.90;;
8488;SDS011;4281;45.772;12.852;2023-07-29T09:37:22;3.40;;;3.00;;
8488;SDS011;4281;45.772;12.852;2023-07-29T09:39:50;3.90;;;2.60;;
8488;SDS011;4281;45.772;12.852;2023-07-29T09:42:18;3.07;;;2.77;;
8488;SDS011;4281;45.772;12.852;2023-07-29T09:44:48;3.53;;;2.93;;
8488;SDS011;4281;45.772;12.852;2023-07-29T09:47:20;3.50;;;2.87;;
8488;SDS011;4281;45.772;12.852;2023-07-29T09:49:49;3.83;;;2.80;;
8488;SDS011;4281;45.772;12.852;2023-07-29T09:52:16;4.70;;;2.80;;
8488;SDS011;4281;45.772;12.852;2023-07-29T09:54:45;3.23;;;2.93;;
8488;SDS011;4281;45.772;12.852;2023-07-29T09:57:14;3.37;;;2.70;;
8488;SDS011;4281;45.772;12.852;2023-07-29T09:59:42;4.53;;;3.07;;
8488;SDS011;4281;45.772;12.852;2023-07-29T10:02:13;4.17;;;2.83;;
8488;SDS011;4281;45.772;12.852;2023-07-29T10:04:42;3.50;;;3.00;;
8488;SDS011;4281;45.772;12.852;2023-07-29T10:07:10;4.23;;;3.20;;
8488;SDS011;4281;45.772;12.852;2023-07-29T10:09:39;3.40;;;2.73;;
8488;SDS011;4281;45.772;12.852;2023-07-29T10:12:07;3.23;;;2.50;;
8488;SDS011;4281;45.772;12.852;2023-07-29T10:14:35;3.23;;;2.90;;
8488;SDS011;4281;45.772;12.852;2023-07-29T10:17:04;4.13;;;2.87;;
8488;SDS011;4281;45.772;12.852;2023-07-29T10:19:34;3.67;;;2.90;;
8488;SDS011;4281;45.772;12.852;2023-07-29T10:22:03;2.67;;;2.47;;
8488;SDS011;4281;45.772;12.852;2023-07-29T10:24:32;2.83;;;2.57;;
8488;SDS011;4281;45.772;12.852;2023-07-29T10:27:01;2.53;;;2.33;;
8488;SDS011;4281;45.772;12.852;2023-07-29T10:29:31;3.10;;;2.60;;
8488;SDS011;4281;45.772;12.852;2023-07-29T10:32:01;3.10;;;2.60;;
8488;SDS011;4281;45.772;12.852;2023-07-29T10:34:30;3.70;;;2.90;;
8488;SDS011;4281;45.772;12.852;2023-07-29T10:37:00;3.80;;;2.70;;
8488;SDS011;4281;45.772;12.852;2023-07-29T10:39:32;3.27;;;2.70;;
8488;SDS011;4281;45.772;12.852;2023-07-29T10:42:05;3.73;;;3.23;;
8488;SDS011;4281;45.772;12.852;2023-07-29T10:44:46;4.00;;;3.60;;
8488;SDS011;4281;45.772;12.852;2023-07-29T10:47:19;4.67;;;3.77;;
8488;SDS011;4281;45.772;12.852;2023-07-29T10:49:49;3.90;;;3.50;;
8488;SDS011;4281;45.772;12.852;2023-07-29T10:52:39;4.37;;;3.90;;
8488;SDS011;4281;45.772;12.852;2023-07-29T10:55:27;4.60;;;3.87;;
8488;SDS011;4281;45.772;12.852;2023-07-29T10:58:06;3.37;;;3.07;;
8488;SDS011;4281;45.772;12.852;2023-07-29T11:00:35;4.90;;;3.60;;
8488;SDS011;4281;45.772;12.852;2023-07-29T11:03:04;5.10;;;4.60;;
8488;SDS011;4281;45.772;12.852;2023-07-29T11:05:43;6.10;;;4.57;;
8488;SDS011;4281;45.772;12.852;2023-07-29T11:08:17;4.37;;;3.97;;
8488;SDS011;4281;45.772;12.852;2023-07-29T11:10:57;6.50;;;4.67;;
8488;SDS011;4281;45.772;12.852;2023-07-29T11:13:26;4.50;;;4.10;;
8488;SDS011;4281;45.772;12.852;2023-07-29T11:15:55;4.07;;;3.63;;
8488;SDS011;4281;45.772;12.852;2023-07-29T11:18:28;4.23;;;3.83;;
8488;SDS011;4281;45.772;12.852;2023-07-29T11:20:56;4.60;;;3.70;;
8488;SDS011;4281;45.772;12.852;2023-07-29T11:23:30;3.90;;;3.57;;
8488;SDS011;4281;45.772;12.852;2023-07-29T11:25:59;4.03;;;3.10;;
8488;SDS011;4281;45.772;12.852;2023-07-29T11:28:28;4.40;;;3.10;;
8488;SDS011;4281;45.772;12.852;2023-07-29T11:30:56;5.47;;;4.10;;
8488;SDS011;4281;45.772;12.852;2023-07-29T11:33:25;3.40;;;3.10;;
8488;SDS011;4281;45.772;12.852;2023-07-29T11:35:55;4.83;;;3.63;;
8488;SDS011;4281;45.772;12.852;2023-07-29T11:38:23;5.47;;;3.90;;
8488;SDS011;4281;45.772;12.852;2023-07-29T11:40:56;5.13;;;3.57;;
8488;SDS011;4281;45.772;12.852;2023-07-29T11:43:25;3.57;;;3.27;;
8488;SDS011;4281;45.772;12.852;2023-07-29T11:45:54;3.77;;;3.37;;
8488;SDS011;4281;45.772;12.852;2023-07-29T11:48:28;5.10;;;3.77;;
8488;SDS011;4281;45.772;12.852;2023-07-29T11:50:58;3.93;;;3.50;;
8488;SDS011;4281;45.772;12.852;2023-07-29T11:53:27;3.50;;;3.20;;
8488;SDS011;4281;45.772;12.852;2023-07-29T11:55:58;4.77;;;4.33;;
8488;SDS011;4281;45.772;12.852;2023-07-29T11:58:26;5.53;;;4.83;;
8488;SDS011;4281;45.772;12.852;2023-07-29T12:00:53;4.57;;;3.60;;
8488;SDS011;4281;45.772;12.852;2023-07-29T12:03:22;4.43;;;3.50;;
8488;SDS011;4281;45.772;12.852;2023-07-29T12:05:50;5.33;;;4.17;;
8488;SDS011;4281;45.772;12.852;2023-07-29T12:08:18;3.87;;;3.43;;
8488;SDS011;4281;45.772;12.852;2023-07-29T12:10:46;3.83;;;3.43;;
8488;SDS011;4281;45.772;12.852;2023-07-29T12:13:15;5.77;;;3.43;;
8488;SDS011;4281;45.772;12.852;2023-07-29T12:15:43;3.43;;;3.13;;
8488;SDS011;4281;45.772;12.852;2023-07-29T12:18:11;4.27;;;3.77;;
8488;SDS011;4281;45.772;12.852;2023-07-29T12:20:39;4.20;;;3.77;;
8488;SDS011;4281;45.772;12.852;2023-07-29T12:23:07;4.07;;;3.67;;
8488;SDS011;4281;45.772;12.852;2023-07-29T12:25:35;4.53;;;3.90;;
8488;SDS011;4281;45.772;12.852;2023-07-29T12:28:03;3.77;;;3.10;;
8488;SDS011;4281;45.772;12.852;2023-07-29T12:30:40;4.13;;;2.87;;
8488;SDS011;4281;45.772;12.852;2023-07-29T12:33:09;2.80;;;2.60;;
8488;SDS011;4281;45.772;12.852;2023-07-29T12:35:36;4.23;;;2.80;;
8488;SDS011;4281;45.772;12.852;2023-07-29T12:38:05;3.63;;;3.30;;
8488;SDS011;4281;45.772;12.852;2023-07-29T12:40:37;3.90;;;3.50;;
8488;SDS011;4281;45.772;12.852;2023-07-29T12:43:05;4.30;;;3.90;;
8488;SDS011;4281;45.772;12.852;2023-07-29T12:45:36;4.27;;;3.90;;
8488;SDS011;4281;45.772;12.852;2023-07-29T12:48:06;4.07;;;3.67;;
8488;SDS011;4281;45.772;12.852;2023-07-29T12:50:35;4.33;;;3.50;;
8488;SDS011;4281;45.772;12.852;2023-07-29T12:53:03;4.43;;;3.07;;
8488;SDS011;4281;45.772;12.852;2023-07-29T12:55:31;3.53;;;3.23;;
8488;SDS011;4281;45.772;12.852;2023-07-29T12:57:59;3.87;;;2.80;;
8488;SDS011;4281;45.772;12.852;2023-07-29T13:00:27;3.60;;;3.27;;
8488;SDS011;4281;45.772;12.852;2023-07-29T13:02:57;4.47;;;3.43;;
8488;SDS011;4281;45.772;12.852;2023-07-29T13:05:25;3.30;;;3.00;;
8488;SDS011;4281;45.772;12.852;2023-07-29T13:07:53;3.03;;;2.83;;
8488;SDS011;4281;45.772;12.852;2023-07-29T13:10:20;3.03;;;2.63;;
8488;SDS011;4281;45.772;12.852;2023-07-29T13:12:48;4.80;;;3.17;;
8488;SDS011;4281;45.772;12.852;2023-07-29T13:15:16;3.50;;;3.20;;
8488;SDS011;4281;45.772;12.852;2023-07-29T13:17:44;3.57;;;3.03;;
8488;SDS011;4281;45.772;12.852;2023-07-29T13:20:13;3.77;;;3.47;;
8488;SDS011;4281;45.772;12.852;2023-07-29T13:22:41;3.60;;;2.73;;
8488;SDS011;4281;45.772;12.852;2023-07-29T13:25:09;3.37;;;3.07;;
8488;SDS011;4281;45.772;12.852;2023-07-29T13:27:37;4.70;;;2.83;;
8488;SDS011;4281;45.772;12.852;2023-07-29T13:30:05;4.00;;;2.93;;
8488;SDS011;4281;45.772;12.852;2023-07-29T13:32:34;5.37;;;3.83;;
8488;SDS011;4281;45.772;12.852;2023-07-29T13:35:03;4.33;;;3.77;;
8488;SDS011;4281;45.772;12.852;2023-07-29T13:37:32;3.53;;;3.23;;
8488;SDS011;4281;45.772;12.852;2023-07-29T13:40:00;4.57;;;3.20;;
8488;SDS011;4281;45.772;12.852;2023-07-29T13:42:28;4.10;;;3.10;;
8488;SDS011;4281;45.772;12.852;2023-07-29T13:44:56;3.30;;;3.00;;
8488;SDS011;4281;45.772;12.852;2023-07-29T13:47:24;3.60;;;2.90;;
8488;SDS011;4281;45.772;12.852;2023-07-29T13:49:52;3.80;;;3.50;;
8488;SDS011;4281;45.772;12.852;2023-07-29T13:52:20;3.40;;;2.90;;
8488;SDS011;4281;45.772;12.852;2023-07-29T13:54:49;4.10;;;3.57;;
8488;SDS011;4281;45.772;12.852;2023-07-29T13:57:17;3.70;;;3.20;;
8488;SDS011;4281;45.772;12.852;2023-07-29T13:59:45;4.10;;;3.37;;
8488;SDS011;4281;45.772;12.852;2023-07-29T14:02:13;3.63;;;3.13;;
8488;SDS011;4281;45.772;12.852;2023-07-29T14:04:41;5.07;;;3.63;;
8488;SDS011;4281;45.772;12.852;2023-07-29T14:07:36;4.90;;;3.33;;
8488;SDS011;4281;45.772;12.852;2023-07-29T14:10:06;4.87;;;3.50;;
8488;SDS011;4281;45.772;12.852;2023-07-29T14:12:34;3.37;;;3.07;;
8488;SDS011;4281;45.772;12.852;2023-07-29T14:15:03;3.50;;;3.20;;
8488;SDS011;4281;45.772;12.852;2023-07-29T14:17:32;3.87;;;3.47;;
8488;SDS011;4281;45.772;12.852;2023-07-29T14:20:00;4.50;;;3.73;;
8488;SDS011;4281;45.772;12.852;2023-07-29T14:22:29;3.63;;;3.33;;
8488;SDS011;4281;45.772;12.852;2023-07-29T14:24:57;3.60;;;3.30;;
8488;SDS011;4281;45.772;12.852;2023-07-29T14:27:28;4.50;;;3.40;;
8488;SDS011;4281;45.772;12.852;2023-07-29T14:29:55;4.50;;;3.60;;
8488;SDS011;4281;45.772;12.852;2023-07-29T14:32:23;4.30;;;3.57;;
8488;SDS011;4281;45.772;12.852;2023-07-29T14:34:52;4.30;;;3.93;;
8488;SDS011;4281;45.772;12.852;2023-07-29T14:37:20;5.37;;;3.87;;
8488;SDS011;4281;45.772;12.852;2023-07-29T14:39:48;4.53;;;3.83;;
8488;SDS011;4281;45.772;12.852;2023-07-29T14:42:15;3.63;;;3.30;;
8488;SDS011;4281;45.772;12.852;2023-07-29T14:44:45;4.47;;;3.27;;
8488;SDS011;4281;45.772;12.852;2023-07-29T14:47:13;5.93;;;4.90;;
8488;SDS011;4281;45.772;12.852;2023-07-29T14:49:40;4.57;;;3.70;;
8488;SDS011;4281;45.772;12.852;2023-07-29T14:52:08;4.53;;;3.67;;
8488;SDS011;4281;45.772;12.852;2023-07-29T14:54:36;4.03;;;3.43;;
8488;SDS011;4281;45.772;12.852;2023-07-29T14:57:05;3.23;;;2.93;;
8488;SDS011;4281;45.772;12.852;2023-07-29T14:59:34;3.33;;;3.00;;
8488;SDS011;4281;45.772;12.852;2023-07-29T15:02:03;3.67;;;3.03;;
8488;SDS011;4281;45.772;12.852;2023-07-29T15:04:32;4.43;;;4.03;;
8488;SDS011;4281;45.772;12.852;2023-07-29T15:07:00;5.20;;;4.20;;
8488;SDS011;4281;45.772;12.852;2023-07-29T15:09:29;5.70;;;3.97;;
8488;SDS011;4281;45.772;12.852;2023-07-29T15:11:57;4.80;;;3.90;;
8488;SDS011;4281;45.772;12.852;2023-07-29T15:14:25;4.33;;;3.93;;